sensor_id;sensor_type;location;lat;lon;timestamp;temperature;humidity
1025;DHT22;501;48.214;11.350;2023-07-20T00:01:25;22.10;29.50
1025;DHT22;501;48.214;11.350;2023-07-20T00:03:50;22.00;29.40
1025;DHT22;501;48.214;11.350;2023-07-20T00:06:24;22.00;29.60
1025;DHT22;501;48.214;11.350;2023-07-20T00:08:53;22.00;29.50
1025;DHT22;501;48.214;11.350;2023-07-20T00:11:19;22.00;29.50
1025;DHT22;501;48.214;11.350;2023-07-20T00:13:44;22.00;29.50
1025;DHT22;501;48.214;11.350;2023-07-20T00:16:10;22.00;29.80
1025;DHT22;501;48.214;11.350;2023-07-20T00:18:36;22.00;29.80
1025;DHT22;501;48.214;11.350;2023-07-20T00:21:01;22.00;29.80
1025;DHT22;501;48.214;11.350;2023-07-20T00:23:27;22.00;30.00
1025;DHT22;501;48.214;11.350;2023-07-20T00:25:53;22.00;29.90
1025;DHT22;501;48.214;11.350;2023-07-20T00:28:19;22.00;29.90
1025;DHT22;501;48.214;11.350;2023-07-20T00:30:45;22.00;30.00
1025;DHT22;501;48.214;11.350;2023-07-20T00:33:11;21.90;30.00
1025;DHT22;501;48.214;11.350;2023-07-20T00:35:38;22.00;29.90
1025;DHT22;501;48.214;11.350;2023-07-20T00:38:04;21.90;30.10
1025;DHT22;501;48.214;11.350;2023-07-20T00:40:40;21.90;30.30
1025;DHT22;501;48.214;11.350;2023-07-20T00:43:06;21.90;30.50
1025;DHT22;501;48.214;11.350;2023-07-20T00:45:33;21.90;31.20
1025;DHT22;501;48.214;11.350;2023-07-20T00:47:59;21.90;30.80
1025;DHT22;501;48.214;11.350;2023-07-20T00:50:26;21.80;30.40
1025;DHT22;501;48.214;11.350;2023-07-20T00:52:54;21.80;30.00
1025;DHT22;501;48.214;11.350;2023-07-20T00:55:20;21.80;30.00
1025;DHT22;501;48.214;11.350;2023-07-20T00:57:46;21.80;30.90
1025;DHT22;501;48.214;11.350;2023-07-20T01:00:12;21.80;30.50
1025;DHT22;501;48.214;11.350;2023-07-20T01:02:38;21.80;31.00
1025;DHT22;501;48.214;11.350;2023-07-20T01:05:04;21.80;31.10
1025;DHT22;501;48.214;11.350;2023-07-20T01:07:35;21.70;31.20
1025;DHT22;501;48.214;11.350;2023-07-20T01:10:12;21.70;31.20
1025;DHT22;501;48.214;11.350;2023-07-20T01:12:43;21.70;31.10
1025;DHT22;501;48.214;11.350;2023-07-20T01:15:09;21.70;30.40
1025;DHT22;501;48.214;11.350;2023-07-20T01:17:35;21.70;30.80
1025;DHT22;501;48.214;11.350;2023-07-20T01:20:01;21.70;30.60
1025;DHT22;501;48.214;11.350;2023-07-20T01:33:22;21.70;32.30
1025;DHT22;501;48.214;11.350;2023-07-20T01:35:54;21.70;32.40
1025;DHT22;501;48.214;11.350;2023-07-20T01:38:21;21.70;32.30
1025;DHT22;501;48.214;11.350;2023-07-20T01:40:48;21.60;31.90
1025;DHT22;501;48.214;11.350;2023-07-20T01:43:14;21.60;32.20
1025;DHT22;501;48.214;11.350;2023-07-20T01:45:40;21.60;32.00
1025;DHT22;501;48.214;11.350;2023-07-20T01:48:05;21.60;32.20
1025;DHT22;501;48.214;11.350;2023-07-20T01:50:31;21.60;32.20
1025;DHT22;501;48.214;11.350;2023-07-20T01:52:57;21.60;32.30
1025;DHT22;501;48.214;11.350;2023-07-20T01:55:22;21.60;32.20
1025;DHT22;501;48.214;11.350;2023-07-20T01:57:48;21.60;32.20
1025;DHT22;501;48.214;11.350;2023-07-20T02:00:14;21.50;32.10
1025;DHT22;501;48.214;11.350;2023-07-20T02:02:41;21.60;32.60
1025;DHT22;501;48.214;11.350;2023-07-20T02:05:07;21.50;32.10
1025;DHT22;501;48.214;11.350;2023-07-20T02:07:33;21.50;32.10
1025;DHT22;501;48.214;11.350;2023-07-20T02:09:59;21.50;31.90
1025;DHT22;501;48.214;11.350;2023-07-20T02:12:24;21.50;31.70
1025;DHT22;501;48.214;11.350;2023-07-20T02:14:50;21.50;31.30
1025;DHT22;501;48.214;11.350;2023-07-20T02:17:16;21.40;31.70
1025;DHT22;501;48.214;11.350;2023-07-20T02:19:42;21.40;31.30
1025;DHT22;501;48.214;11.350;2023-07-20T02:22:07;21.40;31.30
1025;DHT22;501;48.214;11.350;2023-07-20T02:24:33;21.40;32.00
1025;DHT22;501;48.214;11.350;2023-07-20T02:26:59;21.30;30.90
1025;DHT22;501;48.214;11.350;2023-07-20T02:29:25;21.30;31.30
1025;DHT22;501;48.214;11.350;2023-07-20T02:31:50;21.30;30.80
1025;DHT22;501;48.214;11.350;2023-07-20T02:34:16;21.30;30.40
1025;DHT22;501;48.214;11.350;2023-07-20T02:36:41;21.30;29.90
1025;DHT22;501;48.214;11.350;2023-07-20T02:39:08;21.30;29.90
1025;DHT22;501;48.214;11.350;2023-07-20T02:41:34;21.30;29.60
1025;DHT22;501;48.214;11.350;2023-07-20T02:44:00;21.30;30.30
1025;DHT22;501;48.214;11.350;2023-07-20T02:46:27;21.30;29.40
1025;DHT22;501;48.214;11.350;2023-07-20T02:48:55;21.20;29.80
1025;DHT22;501;48.214;11.350;2023-07-20T02:51:21;21.20;29.50
1025;DHT22;501;48.214;11.350;2023-07-20T02:53:47;21.20;29.40
1025;DHT22;501;48.214;11.350;2023-07-20T02:56:12;21.10;29.30
1025;DHT22;501;48.214;11.350;2023-07-20T02:58:41;21.10;29.50
1025;DHT22;501;48.214;11.350;2023-07-20T03:01:09;21.10;29.70
1025;DHT22;501;48.214;11.350;2023-07-20T03:03:36;21.00;29.50
1025;DHT22;501;48.214;11.350;2023-07-20T03:06:04;21.00;29.30
1025;DHT22;501;48.214;11.350;2023-07-20T03:08:30;21.00;29.70
1025;DHT22;501;48.214;11.350;2023-07-20T03:10:56;21.00;29.70
1025;DHT22;501;48.214;11.350;2023-07-20T03:13:21;20.90;29.50
1025;DHT22;501;48.214;11.350;2023-07-20T03:15:48;20.90;29.80
1025;DHT22;501;48.214;11.350;2023-07-20T03:18:13;20.90;29.90
1025;DHT22;501;48.214;11.350;2023-07-20T03:20:39;20.90;29.40
1025;DHT22;501;48.214;11.350;2023-07-20T03:23:04;20.90;30.00
1025;DHT22;501;48.214;11.350;2023-07-20T03:25:30;20.90;29.80
1025;DHT22;501;48.214;11.350;2023-07-20T03:27:55;20.80;29.80
1025;DHT22;501;48.214;11.350;2023-07-20T03:30:21;20.80;29.70
1025;DHT22;501;48.214;11.350;2023-07-20T03:32:48;20.80;29.80
1025;DHT22;501;48.214;11.350;2023-07-20T03:35:14;20.80;29.70
1025;DHT22;501;48.214;11.350;2023-07-20T03:37:41;20.80;29.80
1025;DHT22;501;48.214;11.350;2023-07-20T03:40:08;20.80;29.70
1025;DHT22;501;48.214;11.350;2023-07-20T03:42:33;20.70;29.60
1025;DHT22;501;48.214;11.350;2023-07-20T03:44:59;20.70;29.50
1025;DHT22;501;48.214;11.350;2023-07-20T03:47:25;20.70;30.50
1025;DHT22;501;48.214;11.350;2023-07-20T03:49:50;20.70;29.60
1025;DHT22;501;48.214;11.350;2023-07-20T03:52:16;20.70;29.50
1025;DHT22;501;48.214;11.350;2023-07-20T03:54:41;20.70;29.50
1025;DHT22;501;48.214;11.350;2023-07-20T03:57:08;20.60;29.40
1025;DHT22;501;48.214;11.350;2023-07-20T03:59:36;20.60;29.50
1025;DHT22;501;48.214;11.350;2023-07-20T04:02:02;20.60;29.70
1025;DHT22;501;48.214;11.350;2023-07-20T04:04:28;20.60;30.10
1025;DHT22;501;48.214;11.350;2023-07-20T04:06:53;20.60;29.00
1025;DHT22;501;48.214;11.350;2023-07-20T04:09:19;20.60;29.10
1025;DHT22;501;48.214;11.350;2023-07-20T04:11:44;20.60;28.50
1025;DHT22;501;48.214;11.350;2023-07-20T04:14:10;20.60;28.70
1025;DHT22;501;48.214;11.350;2023-07-20T04:16:36;20.60;29.30
1025;DHT22;501;48.214;11.350;2023-07-20T04:19:02;20.50;29.20
1025;DHT22;501;48.214;11.350;2023-07-20T04:21:28;20.50;29.40
1025;DHT22;501;48.214;11.350;2023-07-20T04:23:54;20.50;29.20
1025;DHT22;501;48.214;11.350;2023-07-20T04:26:19;20.60;29.60
1025;DHT22;501;48.214;11.350;2023-07-20T04:28:45;20.50;29.90
1025;DHT22;501;48.214;11.350;2023-07-20T04:31:15;20.60;29.90
1025;DHT22;501;48.214;11.350;2023-07-20T04:33:41;20.50;29.80
1025;DHT22;501;48.214;11.350;2023-07-20T04:36:07;20.50;30.20
1025;DHT22;501;48.214;11.350;2023-07-20T04:38:33;20.60;30.00
1025;DHT22;501;48.214;11.350;2023-07-20T04:40:59;20.60;30.10
1025;DHT22;501;48.214;11.350;2023-07-20T04:43:25;20.50;29.30
1025;DHT22;501;48.214;11.350;2023-07-20T04:45:51;20.50;29.10
1025;DHT22;501;48.214;11.350;2023-07-20T04:48:17;20.50;29.50
1025;DHT22;501;48.214;11.350;2023-07-20T04:50:44;20.40;29.20
1025;DHT22;501;48.214;11.350;2023-07-20T04:53:12;20.40;29.40
1025;DHT22;501;48.214;11.350;2023-07-20T04:55:39;20.40;29.30
1025;DHT22;501;48.214;11.350;2023-07-20T04:58:05;20.40;28.80
1025;DHT22;501;48.214;11.350;2023-07-20T05:00:33;20.40;29.00
1025;DHT22;501;48.214;11.350;2023-07-20T05:02:58;20.30;29.00
1025;DHT22;501;48.214;11.350;2023-07-20T05:05:24;20.30;28.70
1025;DHT22;501;48.214;11.350;2023-07-20T05:07:50;20.30;28.00
1025;DHT22;501;48.214;11.350;2023-07-20T05:10:15;20.30;28.00
1025;DHT22;501;48.214;11.350;2023-07-20T05:12:41;20.30;28.60
1025;DHT22;501;48.214;11.350;2023-07-20T05:15:07;20.30;28.50
1025;DHT22;501;48.214;11.350;2023-07-20T05:17:33;20.30;28.00
1025;DHT22;501;48.214;11.350;2023-07-20T05:19:58;20.30;27.90
1025;DHT22;501;48.214;11.350;2023-07-20T05:22:24;20.30;27.60
1025;DHT22;501;48.214;11.350;2023-07-20T05:24:50;20.30;27.40
1025;DHT22;501;48.214;11.350;2023-07-20T05:27:16;20.30;27.60
1025;DHT22;501;48.214;11.350;2023-07-20T05:29:45;20.30;27.90
1025;DHT22;501;48.214;11.350;2023-07-20T05:32:11;20.30;28.10
1025;DHT22;501;48.214;11.350;2023-07-20T05:34:37;20.30;28.00
1025;DHT22;501;48.214;11.350;2023-07-20T05:37:02;20.20;27.80
1025;DHT22;501;48.214;11.350;2023-07-20T05:39:28;20.20;28.50
1025;DHT22;501;48.214;11.350;2023-07-20T05:41:54;20.20;28.40
1025;DHT22;501;48.214;11.350;2023-07-20T05:44:19;20.20;28.20
1025;DHT22;501;48.214;11.350;2023-07-20T05:46:45;20.20;28.40
1025;DHT22;501;48.214;11.350;2023-07-20T05:49:10;20.20;28.70
1025;DHT22;501;48.214;11.350;2023-07-20T05:51:36;20.10;28.20
1025;DHT22;501;48.214;11.350;2023-07-20T05:54:02;20.10;28.20
1025;DHT22;501;48.214;11.350;2023-07-20T05:56:27;20.00;28.30
1025;DHT22;501;48.214;11.350;2023-07-20T05:58:53;20.00;28.40
1025;DHT22;501;48.214;11.350;2023-07-20T06:01:19;20.00;28.80
1025;DHT22;501;48.214;11.350;2023-07-20T06:03:44;20.00;28.80
1025;DHT22;501;48.214;11.350;2023-07-20T06:06:10;20.00;29.20
1025;DHT22;501;48.214;11.350;2023-07-20T06:08:37;20.00;28.90
1025;DHT22;501;48.214;11.350;2023-07-20T06:11:03;20.00;29.20
1025;DHT22;501;48.214;11.350;2023-07-20T06:13:29;20.00;29.20
1025;DHT22;501;48.214;11.350;2023-07-20T06:15:55;20.00;29.40
1025;DHT22;501;48.214;11.350;2023-07-20T06:18:23;20.00;29.60
1025;DHT22;501;48.214;11.350;2023-07-20T06:20:52;20.10;28.70
1025;DHT22;501;48.214;11.350;2023-07-20T06:23:21;20.20;29.20
1025;DHT22;501;48.214;11.350;2023-07-20T06:25:47;20.20;29.20
1025;DHT22;501;48.214;11.350;2023-07-20T06:28:13;20.30;29.20
1025;DHT22;501;48.214;11.350;2023-07-20T06:30:39;20.40;28.60
1025;DHT22;501;48.214;11.350;2023-07-20T06:33:05;20.40;28.60
1025;DHT22;501;48.214;11.350;2023-07-20T06:35:31;20.40;28.90
1025;DHT22;501;48.214;11.350;2023-07-20T06:37:56;20.50;28.50
1025;DHT22;501;48.214;11.350;2023-07-20T06:40:23;20.50;28.50
1025;DHT22;501;48.214;11.350;2023-07-20T06:42:48;20.50;28.70
1025;DHT22;501;48.214;11.350;2023-07-20T06:45:14;20.60;28.50
1025;DHT22;501;48.214;11.350;2023-07-20T06:47:40;20.70;28.70
1025;DHT22;501;48.214;11.350;2023-07-20T06:50:07;20.70;28.30
1025;DHT22;501;48.214;11.350;2023-07-20T06:52:33;20.80;28.00
1025;DHT22;501;48.214;11.350;2023-07-20T06:54:58;20.80;28.20
1025;DHT22;501;48.214;11.350;2023-07-20T06:57:25;21.00;27.60
1025;DHT22;501;48.214;11.350;2023-07-20T06:59:51;21.00;27.50
1025;DHT22;501;48.214;11.350;2023-07-20T07:02:16;21.00;28.10
1025;DHT22;501;48.214;11.350;2023-07-20T07:04:42;21.10;27.60
1025;DHT22;501;48.214;11.350;2023-07-20T07:07:08;21.10;27.10
1025;DHT22;501;48.214;11.350;2023-07-20T07:09:35;21.10;27.30
1025;DHT22;501;48.214;11.350;2023-07-20T07:12:00;21.20;27.40
1025;DHT22;501;48.214;11.350;2023-07-20T07:14:26;21.30;27.20
1025;DHT22;501;48.214;11.350;2023-07-20T07:16:52;21.40;27.70
1025;DHT22;501;48.214;11.350;2023-07-20T07:19:18;21.50;26.30
1025;DHT22;501;48.214;11.350;2023-07-20T07:21:43;21.50;26.30
1025;DHT22;501;48.214;11.350;2023-07-20T07:24:09;21.50;27.50
1025;DHT22;501;48.214;11.350;2023-07-20T07:26:36;21.60;26.60
1025;DHT22;501;48.214;11.350;2023-07-20T07:29:02;21.80;26.10
1025;DHT22;501;48.214;11.350;2023-07-20T07:31:34;21.80;26.40
1025;DHT22;501;48.214;11.350;2023-07-20T07:34:01;21.90;26.10
1025;DHT22;501;48.214;11.350;2023-07-20T07:36:27;22.00;26.30
1025;DHT22;501;48.214;11.350;2023-07-20T07:38:53;22.10;25.50
1025;DHT22;501;48.214;11.350;2023-07-20T07:41:19;22.10;25.80
1025;DHT22;501;48.214;11.350;2023-07-20T07:43:44;22.10;25.90
1025;DHT22;501;48.214;11.350;2023-07-20T07:46:10;22.20;26.40
1025;DHT22;501;48.214;11.350;2023-07-20T07:48:36;22.30;25.40
1025;DHT22;501;48.214;11.350;2023-07-20T07:51:01;22.30;26.10
1025;DHT22;501;48.214;11.350;2023-07-20T07:53:27;22.30;24.80
1025;DHT22;501;48.214;11.350;2023-07-20T07:55:53;22.30;24.90
1025;DHT22;501;48.214;11.350;2023-07-20T07:58:19;22.30;24.80
1025;DHT22;501;48.214;11.350;2023-07-20T08:00:44;22.30;24.80
1025;DHT22;501;48.214;11.350;2023-07-20T08:03:10;22.30;24.90
1025;DHT22;501;48.214;11.350;2023-07-20T08:05:36;22.30;24.40
1025;DHT22;501;48.214;11.350;2023-07-20T08:08:05;22.30;24.20
1025;DHT22;501;48.214;11.350;2023-07-20T08:10:31;22.20;24.80
1025;DHT22;501;48.214;11.350;2023-07-20T08:12:56;22.20;24.80
1025;DHT22;501;48.214;11.350;2023-07-20T08:15:22;22.30;24.90
1025;DHT22;501;48.214;11.350;2023-07-20T08:17:48;22.40;24.90
1025;DHT22;501;48.214;11.350;2023-07-20T08:20:14;22.50;24.70
1025;DHT22;501;48.214;11.350;2023-07-20T08:22:41;22.50;24.70
1025;DHT22;501;48.214;11.350;2023-07-20T08:25:08;22.60;24.70
1025;DHT22;501;48.214;11.350;2023-07-20T08:27:34;22.70;24.70
1025;DHT22;501;48.214;11.350;2023-07-20T08:30:00;22.80;24.80
1025;DHT22;501;48.214;11.350;2023-07-20T08:32:26;22.80;23.90
1025;DHT22;501;48.214;11.350;2023-07-20T08:34:52;22.70;25.10
1025;DHT22;501;48.214;11.350;2023-07-20T08:37:17;22.70;24.90
1025;DHT22;501;48.214;11.350;2023-07-20T08:39:43;22.70;24.70
1025;DHT22;501;48.214;11.350;2023-07-20T08:42:10;22.80;24.50
1025;DHT22;501;48.214;11.350;2023-07-20T08:44:36;22.80;23.90
1025;DHT22;501;48.214;11.350;2023-07-20T08:47:06;22.90;24.30
1025;DHT22;501;48.214;11.350;2023-07-20T08:49:32;22.90;23.90
1025;DHT22;501;48.214;11.350;2023-07-20T08:51:59;23.00;23.80
1025;DHT22;501;48.214;11.350;2023-07-20T08:54:30;23.10;24.50
1025;DHT22;501;48.214;11.350;2023-07-20T08:57:03;23.10;24.20
1025;DHT22;501;48.214;11.350;2023-07-20T08:59:29;23.20;23.30
1025;DHT22;501;48.214;11.350;2023-07-20T09:01:56;23.20;23.30
1025;DHT22;501;48.214;11.350;2023-07-20T09:04:23;23.30;24.20
1025;DHT22;501;48.214;11.350;2023-07-20T09:06:49;23.30;23.70
1025;DHT22;501;48.214;11.350;2023-07-20T09:09:16;23.30;23.50
1025;DHT22;501;48.214;11.350;2023-07-20T09:11:41;23.30;24.20
1025;DHT22;501;48.214;11.350;2023-07-20T09:14:08;23.40;23.80
1025;DHT22;501;48.214;11.350;2023-07-20T09:16:54;23.40;23.50
1025;DHT22;501;48.214;11.350;2023-07-20T09:19:21;23.50;23.40
1025;DHT22;501;48.214;11.350;2023-07-20T09:21:48;23.40;24.30
1025;DHT22;501;48.214;11.350;2023-07-20T09:24:14;23.50;22.90
1025;DHT22;501;48.214;11.350;2023-07-20T09:26:41;23.50;22.80
1025;DHT22;501;48.214;11.350;2023-07-20T09:29:09;23.60;23.60
1025;DHT22;501;48.214;11.350;2023-07-20T09:31:35;23.70;22.50
1025;DHT22;501;48.214;11.350;2023-07-20T09:34:01;23.60;21.90
1025;DHT22;501;48.214;11.350;2023-07-20T09:36:27;23.70;22.60
1025;DHT22;501;48.214;11.350;2023-07-20T09:38:53;23.70;22.70
1025;DHT22;501;48.214;11.350;2023-07-20T09:41:20;23.70;22.00
1025;DHT22;501;48.214;11.350;2023-07-20T09:43:46;23.70;21.50
1025;DHT22;501;48.214;11.350;2023-07-20T09:46:12;23.70;22.30
1025;DHT22;501;48.214;11.350;2023-07-20T09:48:37;23.70;23.40
1025;DHT22;501;48.214;11.350;2023-07-20T09:51:03;23.80;22.40
1025;DHT22;501;48.214;11.350;2023-07-20T09:53:32;23.90;23.30
1025;DHT22;501;48.214;11.350;2023-07-20T09:55:58;24.00;22.20
1025;DHT22;501;48.214;11.350;2023-07-20T09:58:25;24.00;22.20
1025;DHT22;501;48.214;11.350;2023-07-20T10:00:51;24.00;23.00
1025;DHT22;501;48.214;11.350;2023-07-20T10:03:28;24.10;23.20
1025;DHT22;501;48.214;11.350;2023-07-20T10:05:57;24.20;23.90
1025;DHT22;501;48.214;11.350;2023-07-20T10:08:29;24.30;22.40
1025;DHT22;501;48.214;11.350;2023-07-20T10:10:57;24.30;22.40
1025;DHT22;501;48.214;11.350;2023-07-20T10:13:29;24.40;21.70
1025;DHT22;501;48.214;11.350;2023-07-20T10:16:01;24.50;22.50
1025;DHT22;501;48.214;11.350;2023-07-20T10:18:29;24.50;21.60
1025;DHT22;501;48.214;11.350;2023-07-20T10:20:56;24.40;21.40
1025;DHT22;501;48.214;11.350;2023-07-20T10:23:24;24.30;21.50
1025;DHT22;501;48.214;11.350;2023-07-20T10:25:51;24.30;22.60
1025;DHT22;501;48.214;11.350;2023-07-20T10:28:17;24.30;22.40
1025;DHT22;501;48.214;11.350;2023-07-20T10:30:44;24.30;22.40
1025;DHT22;501;48.214;11.350;2023-07-20T10:33:10;24.30;22.90
1025;DHT22;501;48.214;11.350;2023-07-20T10:35:56;24.30;22.40
1025;DHT22;501;48.214;11.350;2023-07-20T10:38:53;24.30;21.80
1025;DHT22;501;48.214;11.350;2023-07-20T10:41:20;24.20;22.30
1025;DHT22;501;48.214;11.350;2023-07-20T10:43:47;24.30;22.00
1025;DHT22;501;48.214;11.350;2023-07-20T10:46:13;24.30;21.90
1025;DHT22;501;48.214;11.350;2023-07-20T10:48:59;24.30;22.00
1025;DHT22;501;48.214;11.350;2023-07-20T10:51:25;24.10;22.30
1025;DHT22;501;48.214;11.350;2023-07-20T10:53:51;24.10;22.30
1025;DHT22;501;48.214;11.350;2023-07-20T10:56:22;24.10;22.20
1025;DHT22;501;48.214;11.350;2023-07-20T10:58:48;24.00;22.40
1025;DHT22;501;48.214;11.350;2023-07-20T11:01:16;24.00;22.50
1025;DHT22;501;48.214;11.350;2023-07-20T11:03:43;24.10;22.60
1025;DHT22;501;48.214;11.350;2023-07-20T11:08:55;24.20;23.00
1025;DHT22;501;48.214;11.350;2023-07-20T11:11:29;24.30;21.70
1025;DHT22;501;48.214;11.350;2023-07-20T11:16:37;24.20;22.40
1025;DHT22;501;48.214;11.350;2023-07-20T11:19:04;24.30;22.30
1025;DHT22;501;48.214;11.350;2023-07-20T11:21:37;24.50;22.60
1025;DHT22;501;48.214;11.350;2023-07-20T11:24:06;24.70;21.60
1025;DHT22;501;48.214;11.350;2023-07-20T11:26:52;24.80;22.20
1025;DHT22;501;48.214;11.350;2023-07-20T11:29:19;24.90;21.80
1025;DHT22;501;48.214;11.350;2023-07-20T11:31:46;25.00;21.40
1025;DHT22;501;48.214;11.350;2023-07-20T11:34:17;25.00;22.20
1025;DHT22;501;48.214;11.350;2023-07-20T11:36:44;25.10;21.50
1025;DHT22;501;48.214;11.350;2023-07-20T11:39:12;25.20;22.00
1025;DHT22;501;48.214;11.350;2023-07-20T11:41:38;25.20;22.40
1025;DHT22;501;48.214;11.350;2023-07-20T11:44:05;25.40;21.90
1025;DHT22;501;48.214;11.350;2023-07-20T11:46:39;25.60;20.00
1025;DHT22;501;48.214;11.350;2023-07-20T11:49:05;25.90;20.70
1025;DHT22;501;48.214;11.350;2023-07-20T11:51:31;26.10;20.70
1025;DHT22;501;48.214;11.350;2023-07-20T11:53:58;26.10;20.20
1025;DHT22;501;48.214;11.350;2023-07-20T11:56:24;26.10;19.80
1025;DHT22;501;48.214;11.350;2023-07-20T11:58:53;26.00;20.40
1025;DHT22;501;48.214;11.350;2023-07-20T12:01:19;26.00;21.30
1025;DHT22;501;48.214;11.350;2023-07-20T12:03:47;26.10;21.60
1025;DHT22;501;48.214;11.350;2023-07-20T12:06:13;26.20;20.90
1025;DHT22;501;48.214;11.350;2023-07-20T12:08:42;26.20;20.30
1025;DHT22;501;48.214;11.350;2023-07-20T12:11:08;26.50;19.80
1025;DHT22;501;48.214;11.350;2023-07-20T12:13:47;26.80;21.10
1025;DHT22;501;48.214;11.350;2023-07-20T12:16:16;27.20;19.70
1025;DHT22;501;48.214;11.350;2023-07-20T12:18:45;27.50;19.60
1025;DHT22;501;48.214;11.350;2023-07-20T12:21:11;27.80;19.60
1025;DHT22;501;48.214;11.350;2023-07-20T12:23:41;27.90;19.00
1025;DHT22;501;48.214;11.350;2023-07-20T12:26:10;27.80;18.70
1025;DHT22;501;48.214;11.350;2023-07-20T12:28:45;27.60;19.90
1025;DHT22;501;48.214;11.350;2023-07-20T12:31:11;27.70;19.40
1025;DHT22;501;48.214;11.350;2023-07-20T12:33:38;28.00;19.60
1025;DHT22;501;48.214;11.350;2023-07-20T12:36:04;28.40;19.30
1025;DHT22;501;48.214;11.350;2023-07-20T12:38:30;28.80;17.80
1025;DHT22;501;48.214;11.350;2023-07-20T12:41:03;29.00;17.90
1025;DHT22;501;48.214;11.350;2023-07-20T12:43:29;29.20;17.70
1025;DHT22;501;48.214;11.350;2023-07-20T12:45:56;29.40;17.60
1025;DHT22;501;48.214;11.350;2023-07-20T12:48:22;29.70;18.40
1025;DHT22;501;48.214;11.350;2023-07-20T12:50:48;30.00;16.00
1025;DHT22;501;48.214;11.350;2023-07-20T12:53:14;29.80;16.10
1025;DHT22;501;48.214;11.350;2023-07-20T12:55:40;29.40;15.90
1025;DHT22;501;48.214;11.350;2023-07-20T12:58:07;28.90;16.60
1025;DHT22;501;48.214;11.350;2023-07-20T13:00:33;28.30;17.50
1025;DHT22;501;48.214;11.350;2023-07-20T13:02:59;28.10;17.80
1025;DHT22;501;48.214;11.350;2023-07-20T13:05:25;27.90;17.70
1025;DHT22;501;48.214;11.350;2023-07-20T13:07:51;27.80;18.30
1025;DHT22;501;48.214;11.350;2023-07-20T13:10:17;27.80;17.80
1025;DHT22;501;48.214;11.350;2023-07-20T13:12:43;27.80;19.30
1025;DHT22;501;48.214;11.350;2023-07-20T13:15:09;28.00;18.90
1025;DHT22;501;48.214;11.350;2023-07-20T13:17:37;28.30;18.00
1025;DHT22;501;48.214;11.350;2023-07-20T13:20:04;28.50;18.20
1025;DHT22;501;48.214;11.350;2023-07-20T13:22:31;28.80;17.70
1025;DHT22;501;48.214;11.350;2023-07-20T13:24:57;29.20;16.30
1025;DHT22;501;48.214;11.350;2023-07-20T13:27:23;29.40;16.90
1025;DHT22;501;48.214;11.350;2023-07-20T13:29:48;29.60;16.00
1025;DHT22;501;48.214;11.350;2023-07-20T13:32:14;29.60;16.00
1025;DHT22;501;48.214;11.350;2023-07-20T13:34:40;29.50;17.00
1025;DHT22;501;48.214;11.350;2023-07-20T13:37:06;29.30;16.70
1025;DHT22;501;48.214;11.350;2023-07-20T13:39:32;29.40;16.90
1025;DHT22;501;48.214;11.350;2023-07-20T13:41:58;29.60;17.00
1025;DHT22;501;48.214;11.350;2023-07-20T13:44:23;29.80;16.80
1025;DHT22;501;48.214;11.350;2023-07-20T13:46:49;29.80;16.20
1025;DHT22;501;48.214;11.350;2023-07-20T13:49:15;29.80;16.40
1025;DHT22;501;48.214;11.350;2023-07-20T13:51:42;29.90;16.60
1025;DHT22;501;48.214;11.350;2023-07-20T13:54:08;30.00;16.40
1025;DHT22;501;48.214;11.350;2023-07-20T13:56:34;30.10;16.60
1025;DHT22;501;48.214;11.350;2023-07-20T13:58:59;30.30;16.20
1025;DHT22;501;48.214;11.350;2023-07-20T14:01:26;30.30;15.20
1025;DHT22;501;48.214;11.350;2023-07-20T14:03:53;30.20;15.10
1025;DHT22;501;48.214;11.350;2023-07-20T14:06:19;30.00;16.10
1025;DHT22;501;48.214;11.350;2023-07-20T14:08:45;29.90;15.60
1025;DHT22;501;48.214;11.350;2023-07-20T14:11:12;29.90;15.80
1025;DHT22;501;48.214;11.350;2023-07-20T14:13:38;29.90;15.20
1025;DHT22;501;48.214;11.350;2023-07-20T14:16:04;29.80;15.80
1025;DHT22;501;48.214;11.350;2023-07-20T14:18:30;29.90;15.20
1025;DHT22;501;48.214;11.350;2023-07-20T14:20:56;29.90;15.50
1025;DHT22;501;48.214;11.350;2023-07-20T14:23:21;30.00;16.00
1025;DHT22;501;48.214;11.350;2023-07-20T14:25:48;30.20;16.20
1025;DHT22;501;48.214;11.350;2023-07-20T14:28:14;30.50;14.90
1025;DHT22;501;48.214;11.350;2023-07-20T14:30:40;30.90;15.90
1025;DHT22;501;48.214;11.350;2023-07-20T14:33:06;31.20;15.80
1025;DHT22;501;48.214;11.350;2023-07-20T14:35:31;31.20;14.40
1025;DHT22;501;48.214;11.350;2023-07-20T14:37:58;31.30;14.40
1025;DHT22;501;48.214;11.350;2023-07-20T14:40:23;31.30;14.40
1025;DHT22;501;48.214;11.350;2023-07-20T14:42:49;31.20;14.40
1025;DHT22;501;48.214;11.350;2023-07-20T14:45:15;31.00;15.00
1025;DHT22;501;48.214;11.350;2023-07-20T14:47:40;30.80;15.20
1025;DHT22;501;48.214;11.350;2023-07-20T14:50:06;30.80;14.40
1025;DHT22;501;48.214;11.350;2023-07-20T14:52:32;30.70;15.30
1025;DHT22;501;48.214;11.350;2023-07-20T14:54:58;30.70;14.90
1025;DHT22;501;48.214;11.350;2023-07-20T14:57:23;30.70;15.80
1025;DHT22;501;48.214;11.350;2023-07-20T14:59:49;30.90;15.10
1025;DHT22;501;48.214;11.350;2023-07-20T15:02:15;31.10;14.30
1025;DHT22;501;48.214;11.350;2023-07-20T15:04:48;31.20;14.30
1025;DHT22;501;48.214;11.350;2023-07-20T15:07:18;31.20;14.30
1025;DHT22;501;48.214;11.350;2023-07-20T15:09:44;31.10;14.30
1025;DHT22;501;48.214;11.350;2023-07-20T15:12:10;31.10;14.30
1025;DHT22;501;48.214;11.350;2023-07-20T15:14:39;31.10;14.80
1025;DHT22;501;48.214;11.350;2023-07-20T15:17:05;31.10;13.30
1025;DHT22;501;48.214;11.350;2023-07-20T15:19:31;31.10;14.00
1025;DHT22;501;48.214;11.350;2023-07-20T15:21:56;31.00;13.70
1025;DHT22;501;48.214;11.350;2023-07-20T15:24:22;30.80;13.80
1025;DHT22;501;48.214;11.350;2023-07-20T15:26:47;30.80;14.10
1025;DHT22;501;48.214;11.350;2023-07-20T15:29:13;30.80;15.20
1025;DHT22;501;48.214;11.350;2023-07-20T15:31:39;30.90;14.10
1025;DHT22;501;48.214;11.350;2023-07-20T15:34:04;30.90;14.50
1025;DHT22;501;48.214;11.350;2023-07-20T15:36:30;31.00;14.20
1025;DHT22;501;48.214;11.350;2023-07-20T15:38:56;31.10;14.30
1025;DHT22;501;48.214;11.350;2023-07-20T15:41:22;31.20;13.50
1025;DHT22;501;48.214;11.350;2023-07-20T15:43:47;31.00;13.30
1025;DHT22;501;48.214;11.350;2023-07-20T15:48:46;30.60;13.80
1025;DHT22;501;48.214;11.350;2023-07-20T15:51:12;30.50;14.00
1025;DHT22;501;48.214;11.350;2023-07-20T15:53:39;30.30;13.90
1025;DHT22;501;48.214;11.350;2023-07-20T15:56:05;30.10;13.70
1025;DHT22;501;48.214;11.350;2023-07-20T15:58:32;30.00;13.90
1025;DHT22;501;48.214;11.350;2023-07-20T16:00:58;29.90;13.60
1025;DHT22;501;48.214;11.350;2023-07-20T16:03:23;29.80;14.50
1025;DHT22;501;48.214;11.350;2023-07-20T16:05:50;29.80;14.10
1025;DHT22;501;48.214;11.350;2023-07-20T16:08:16;29.70;14.30
1025;DHT22;501;48.214;11.350;2023-07-20T16:10:42;29.70;14.10
1025;DHT22;501;48.214;11.350;2023-07-20T16:13:08;29.70;14.40
1025;DHT22;501;48.214;11.350;2023-07-20T16:15:34;29.80;14.10
1025;DHT22;501;48.214;11.350;2023-07-20T16:18:00;29.70;14.30